Time,TemperatureF,DewpointF,PressureIn,WindDirection,WindDirectionDegrees,WindSpeedMPH,WindSpeedGustMPH,Humidity,HourlyPrecipIn,Conditions,Clouds,dailyrainin,SoftwareType,DateUTC
2013-08-22 00:00:00,72.0,63.6,30.10,East,99,1.0,1.0,75,0.00,,,0.00,Wunderground v.1.15,2013-08-22 04:00:00,
2013-08-22 00:02:00,72.0,63.6,30.10,SE,139,1.0,2.0,75,0.00,,,0.00,Wunderground v.1.15,2013-08-22 04:02:00,
2013-08-22 00:04:00,72.1,63.4,30.10,ESE,119,1.0,2.0,74,0.00,,,0.00,Wunderground v.1.15,2013-08-22 04:04:00,
2013-08-22 00:10:00,72.7,63.5,30.10,East,85,1.0,1.0,73,0.00,,,0.00,Wunderground v.1.15,2013-08-22 04:10:00,
2013-08-22 00:14:00,72.9,63.7,30.10,ESE,113,1.0,1.0,73,0.00,,,0.00,Wunderground v.1.15,2013-08-22 04:14:00,
2013-08-22 00:20:00,72.6,63.8,30.10,East,86,1.0,1.0,74,0.00,,,0.00,Wunderground v.1.15,2013-08-22 04:20:00,
2013-08-22 00:22:00,72.5,63.7,30.10,East,98,1.0,1.0,74,0.00,,,0.00,Wunderground v.1.15,2013-08-22 04:22:00,
2013-08-22 00:28:00,72.4,64.0,30.10,ESE,116,1.0,1.0,75,0.00,,,0.00,Wunderground v.1.15,2013-08-22 04:28:00,
2013-08-22 00:34:00,72.1,63.7,30.10,East,80,1.0,2.0,75,0.00,,,0.00,Wunderground v.1.15,2013-08-22 04:34:00,
2013-08-22 00:40:00,72.2,63.8,30.10,ESE,108,1.0,1.0,75,0.00,,,0.00,Wunderground v.1.15,2013-08-22 04:40:00,
2013-08-22 00:46:00,72.3,63.9,30.10,ESE,110,1.0,1.0,75,0.00,,,0.00,Wunderground v.1.15,2013-08-22 04:46:00,
2013-08-22 00:52:00,72.2,63.8,30.10,East,98,1.0,1.0,75,0.00,,,0.00,Wunderground v.1.15,2013-08-22 04:52:00,
2013-08-22 00:58:00,71.9,63.9,30.10,East,84,1.0,1.0,76,0.00,,,0.00,Wunderground v.1.15,2013-08-22 04:58:00,
2013-08-22 01:04:00,71.9,63.9,30.11,ESE,120,1.0,2.0,76,0.00,,,0.00,Wunderground v.1.15,2013-08-22 05:04:00,
2013-08-22 01:10:00,71.9,63.9,30.10,ESE,115,1.0,1.0,76,0.00,,,0.00,Wunderground v.1.15,2013-08-22 05:10:00,
2013-08-22 01:16:00,71.7,64.1,30.10,SE,127,0.0,1.0,77,0.00,,,0.00,Wunderground v.1.15,2013-08-22 05:16:00,
2013-08-22 01:22:00,71.0,64.2,30.11,North,1,0.0,0.0,79,0.00,,,0.00,Wunderground v.1.15,2013-08-22 05:22:00,
2013-08-22 01:28:00,70.0,63.9,30.11,NNE,13,0.0,0.0,81,0.00,,,0.00,Wunderground v.1.15,2013-08-22 05:28:00,
2013-08-22 01:34:00,69.3,63.9,30.12,East,94,0.0,1.0,83,0.00,,,0.00,Wunderground v.1.15,2013-08-22 05:34:00,
2013-08-22 01:40:00,69.1,64.1,30.12,East,94,0.0,1.0,84,0.00,,,0.00,Wunderground v.1.15,2013-08-22 05:40:00,
2013-08-22 01:46:00,69.0,64.0,30.11,East,94,1.0,1.0,84,0.00,,,0.00,Wunderground v.1.15,2013-08-22 05:46:00,
2013-08-22 01:52:00,68.9,63.9,30.11,East,94,1.0,1.0,84,0.00,,,0.00,Wunderground v.1.15,2013-08-22 05:52:00,
2013-08-22 01:58:00,68.8,64.1,30.11,East,94,0.0,1.0,85,0.00,,,0.00,Wunderground v.1.15,2013-08-22 05:58:00,
2013-08-22 02:04:00,68.5,64.1,30.11,East,94,0.0,3.0,86,0.00,,,0.00,Wunderground v.1.15,2013-08-22 06:04:00,
2013-08-22 02:10:00,68.4,64.4,30.11,East,94,0.0,1.0,87,0.00,,,0.00,Wunderground v.1.15,2013-08-22 06:10:00,
2013-08-22 02:16:00,68.3,64.3,30.11,East,94,1.0,1.0,87,0.00,,,0.00,Wunderground v.1.15,2013-08-22 06:16:00,
2013-08-22 02:22:00,68.2,64.2,30.11,East,95,1.0,1.0,87,0.00,,,0.00,Wunderground v.1.15,2013-08-22 06:22:00,
2013-08-22 02:28:00,68.2,64.5,30.11,East,95,1.0,1.0,88,0.00,,,0.00,Wunderground v.1.15,2013-08-22 06:28:00,
2013-08-22 02:34:00,68.3,64.6,30.11,East,96,1.0,1.0,88,0.00,,,0.00,Wunderground v.1.15,2013-08-22 06:34:00,
2013-08-22 02:40:00,68.2,64.5,30.11,East,96,1.0,1.0,88,0.00,,,0.00,Wunderground v.1.15,2013-08-22 06:40:00,
2013-08-22 02:46:00,68.1,64.7,30.11,East,96,1.0,1.0,89,0.00,,,0.00,Wunderground v.1.15,2013-08-22 06:46:00,
2013-08-22 02:52:00,68.0,64.6,30.11,East,97,1.0,1.0,89,0.00,,,0.00,Wunderground v.1.15,2013-08-22 06:52:00,
2013-08-22 02:58:00,68.0,65.0,30.11,East,95,1.0,2.0,90,0.00,,,0.00,Wunderground v.1.15,2013-08-22 06:58:00,
2013-08-22 03:04:00,68.0,65.0,30.10,ESE,109,1.0,1.0,90,0.00,,,0.00,Wunderground v.1.15,2013-08-22 07:04:00,
2013-08-22 03:10:00,68.0,65.0,30.10,ESE,109,1.0,1.0,90,0.00,,,0.00,Wunderground v.1.15,2013-08-22 07:10:00,
2013-08-22 03:16:00,67.8,64.8,30.10,ESE,109,0.0,1.0,90,0.00,,,0.00,Wunderground v.1.15,2013-08-22 07:16:00,
2013-08-22 03:22:00,67.7,65.0,30.10,ESE,109,0.0,0.0,91,0.00,,,0.00,Wunderground v.1.15,2013-08-22 07:22:00,
2013-08-22 03:28:00,67.7,65.0,30.10,ESE,109,1.0,1.0,91,0.00,,,0.00,Wunderground v.1.15,2013-08-22 07:28:00,
2013-08-22 03:34:00,67.7,65.0,30.10,East,94,1.0,1.0,91,0.00,,,0.00,Wunderground v.1.15,2013-08-22 07:34:00,
2013-08-22 03:40:00,67.7,65.0,30.10,East,94,1.0,1.0,91,0.00,,,0.00,Wunderground v.1.15,2013-08-22 07:40:00,
2013-08-22 03:46:00,67.7,65.3,30.10,East,94,0.0,1.0,92,0.00,,,0.00,Wunderground v.1.15,2013-08-22 07:46:00,
2013-08-22 03:52:00,67.9,65.8,30.09,East,94,0.0,1.0,93,0.00,,,0.00,Wunderground v.1.15,2013-08-22 07:52:00,
2013-08-22 03:58:00,67.9,65.8,30.09,East,101,1.0,2.0,93,0.00,,,0.00,Wunderground v.1.15,2013-08-22 07:58:00,
2013-08-22 04:04:00,68.1,66.0,30.09,East,93,0.0,2.0,93,0.00,,,0.00,Wunderground v.1.15,2013-08-22 08:04:00,
2013-08-22 04:10:00,68.3,66.2,30.09,East,94,0.0,0.0,93,0.00,,,0.00,Wunderground v.1.15,2013-08-22 08:10:00,
2013-08-22 04:16:00,68.5,66.4,30.10,ESE,120,0.0,1.0,93,0.00,,,0.00,Wunderground v.1.15,2013-08-22 08:16:00,
2013-08-22 04:22:00,68.9,67.1,30.10,ESE,112,0.0,0.0,94,0.00,,,0.00,Wunderground v.1.15,2013-08-22 08:22:00,
2013-08-22 04:28:00,69.9,67.8,30.09,WSW,244,0.0,0.0,93,0.00,,,0.00,Wunderground v.1.15,2013-08-22 08:28:00,
2013-08-22 04:34:00,70.2,67.8,30.09,WSW,243,0.0,0.0,92,0.00,,,0.00,Wunderground v.1.15,2013-08-22 08:34:00,
2013-08-22 04:40:00,70.4,67.6,30.08,SW,231,0.0,0.0,91,0.00,,,0.00,Wunderground v.1.15,2013-08-22 08:40:00,
2013-08-22 04:46:00,70.3,67.9,30.08,SSE,156,0.0,0.0,92,0.00,,,0.01,Wunderground v.1.15,2013-08-22 08:46:00,
2013-08-22 04:52:00,70.3,68.2,30.09,SSE,156,0.0,0.0,93,0.00,,,0.01,Wunderground v.1.15,2013-08-22 08:52:00,
2013-08-22 04:58:00,70.1,68.0,30.08,East,97,0.0,0.0,93,0.00,,,0.01,Wunderground v.1.15,2013-08-22 08:58:00,
2013-08-22 05:04:00,70.0,67.9,30.07,ENE,74,1.0,2.0,93,0.00,,,0.01,Wunderground v.1.15,2013-08-22 09:04:00,
2013-08-22 05:10:00,69.7,67.9,30.06,SE,131,1.0,1.0,94,0.00,,,0.01,Wunderground v.1.15,2013-08-22 09:10:00,
2013-08-22 05:16:00,69.6,67.5,30.06,ESE,123,0.0,1.0,93,0.00,,,0.01,Wunderground v.1.15,2013-08-22 09:16:00,
2013-08-22 05:22:00,69.4,67.3,30.06,ESE,122,0.0,1.0,93,0.00,,,0.01,Wunderground v.1.15,2013-08-22 09:22:00,
2013-08-22 05:28:00,69.3,67.2,30.06,ESE,108,0.0,1.0,93,0.00,,,0.01,Wunderground v.1.15,2013-08-22 09:28:00,
2013-08-22 05:34:00,69.1,67.0,30.06,East,84,0.0,1.0,93,0.00,,,0.01,Wunderground v.1.15,2013-08-22 09:34:00,
2013-08-22 05:40:00,68.8,66.7,30.06,ESE,106,1.0,1.0,93,0.00,,,0.01,Wunderground v.1.15,2013-08-22 09:40:00,
2013-08-22 05:46:00,68.6,66.5,30.06,ESE,121,1.0,1.0,93,0.00,,,0.01,Wunderground v.1.15,2013-08-22 09:46:00,
2013-08-22 05:52:00,68.4,66.3,30.06,ESE,120,0.0,1.0,93,0.00,,,0.01,Wunderground v.1.15,2013-08-22 09:52:00,
2013-08-22 05:58:00,68.0,65.9,30.06,East,89,1.0,1.0,93,0.00,,,0.01,Wunderground v.1.15,2013-08-22 09:58:00,
2013-08-22 06:04:00,67.7,65.6,30.06,ESE,108,1.0,2.0,93,0.00,,,0.01,Wunderground v.1.15,2013-08-22 10:04:00,
2013-08-22 06:10:00,67.5,65.7,30.06,ESE,109,0.0,0.0,94,0.00,,,0.01,Wunderground v.1.15,2013-08-22 10:10:00,
2013-08-22 06:16:00,67.5,65.7,30.06,ESE,109,0.0,0.0,94,0.00,,,0.01,Wunderground v.1.15,2013-08-22 10:16:00,
2013-08-22 06:24:00,67.4,65.9,30.06,ESE,108,0.0,0.0,95,0.00,,,0.01,Wunderground v.1.15,2013-08-22 10:24:00,
2013-08-22 06:30:00,67.3,65.8,30.06,ESE,108,0.0,0.0,95,0.00,,,0.01,Wunderground v.1.15,2013-08-22 10:30:00,
2013-08-22 06:36:00,67.3,65.8,30.06,ESE,108,0.0,0.0,95,0.00,,,0.01,Wunderground v.1.15,2013-08-22 10:36:00,
2013-08-22 06:42:00,67.4,65.9,30.06,ESE,109,0.0,0.0,95,0.00,,,0.01,Wunderground v.1.15,2013-08-22 10:42:00,
2013-08-22 06:48:00,67.4,66.2,30.06,ESE,108,0.0,0.0,96,0.00,,,0.01,Wunderground v.1.15,2013-08-22 10:48:00,
2013-08-22 08:30:00,73.2,69.4,30.06,West,268,0.0,0.0,88,0.00,,,0.01,Wunderground v.1.15,2013-08-22 12:30:00,
2013-08-22 08:36:00,72.9,69.5,30.06,West,268,0.0,0.0,89,0.00,,,0.01,Wunderground v.1.15,2013-08-22 12:36:00,
2013-08-22 08:42:00,72.6,69.5,30.06,West,268,0.0,0.0,90,0.00,,,0.01,Wunderground v.1.15,2013-08-22 12:42:00,
2013-08-22 08:48:00,72.4,69.3,30.06,West,268,0.0,0.0,90,0.00,,,0.01,Wunderground v.1.15,2013-08-22 12:48:00,
2013-08-22 08:54:00,72.3,69.5,30.06,West,268,0.0,0.0,91,0.00,,,0.01,Wunderground v.1.15,2013-08-22 12:54:00,
2013-08-22 09:00:00,72.2,69.7,30.06,West,268,0.0,0.0,92,0.00,,,0.01,Wunderground v.1.15,2013-08-22 13:00:00,
2013-08-22 09:06:00,72.1,69.6,30.06,West,268,0.0,2.0,92,0.00,,,0.02,Wunderground v.1.15,2013-08-22 13:06:00,
2013-08-22 09:12:00,71.9,69.8,30.06,West,268,0.0,0.0,93,0.00,,,0.02,Wunderground v.1.15,2013-08-22 13:12:00,
2013-08-22 09:18:00,71.7,69.6,30.07,NE,39,0.0,0.0,93,0.00,,,0.02,Wunderground v.1.15,2013-08-22 13:18:00,
2013-08-22 09:24:00,71.5,69.7,30.07,NE,39,0.0,0.0,94,0.00,,,0.02,Wunderground v.1.15,2013-08-22 13:24:00,
2013-08-22 09:30:00,71.5,69.7,30.06,NE,39,0.0,0.0,94,0.00,,,0.02,Wunderground v.1.15,2013-08-22 13:30:00,
2013-08-22 09:36:00,71.5,69.7,30.07,ENE,60,0.0,0.0,94,0.00,,,0.02,Wunderground v.1.15,2013-08-22 13:36:00,
2013-08-22 09:42:00,71.6,70.1,30.06,ENE,60,0.0,0.0,95,0.00,,,0.02,Wunderground v.1.15,2013-08-22 13:42:00,
2013-08-22 09:48:00,71.7,70.2,30.07,ENE,68,0.0,0.0,95,0.00,,,0.02,Wunderground v.1.15,2013-08-22 13:48:00,
2013-08-22 09:54:00,71.8,70.3,30.06,NNE,33,0.0,1.0,95,0.00,,,0.02,Wunderground v.1.15,2013-08-22 13:54:00,
2013-08-22 10:00:00,71.8,70.3,30.06,East,98,0.0,0.0,95,0.00,,,0.02,Wunderground v.1.15,2013-08-22 14:00:00,
2013-08-22 10:06:00,71.9,70.4,30.05,East,98,0.0,1.0,95,0.00,,,0.02,Wunderground v.1.15,2013-08-22 14:06:00,
2013-08-22 10:12:00,72.0,70.5,30.05,East,96,0.0,0.0,95,0.00,,,0.02,Wunderground v.1.15,2013-08-22 14:12:00,
2013-08-22 10:18:00,72.1,70.3,30.05,NNE,23,0.0,1.0,94,0.00,,,0.02,Wunderground v.1.15,2013-08-22 14:18:00,
2013-08-22 10:24:00,72.4,70.9,30.06,NNE,23,0.0,0.0,95,0.00,,,0.02,Wunderground v.1.15,2013-08-22 14:24:00,
2013-08-22 10:30:00,72.7,71.2,30.06,NNE,23,0.0,0.0,95,0.00,,,0.02,Wunderground v.1.15,2013-08-22 14:30:00,
2013-08-22 10:36:00,72.9,70.8,30.06,NNE,23,0.0,0.0,93,0.00,,,0.02,Wunderground v.1.15,2013-08-22 14:36:00,
2013-08-22 10:42:00,73.5,71.4,30.06,NNE,23,0.0,0.0,93,0.00,,,0.02,Wunderground v.1.15,2013-08-22 14:42:00,
2013-08-22 10:48:00,74.0,71.5,30.06,ENE,58,0.0,1.0,92,0.00,,,0.02,Wunderground v.1.15,2013-08-22 14:48:00,
2013-08-22 10:54:00,74.3,71.5,30.07,NNE,31,0.0,1.0,91,0.00,,,0.02,Wunderground v.1.15,2013-08-22 14:54:00,
2013-08-22 11:00:00,74.4,71.6,30.06,NNE,31,0.0,0.0,91,0.00,,,0.02,Wunderground v.1.15,2013-08-22 15:00:00,
2013-08-22 11:06:00,74.4,71.6,30.06,NNE,31,0.0,2.0,91,0.00,,,0.02,Wunderground v.1.15,2013-08-22 15:06:00,
2013-08-22 11:12:00,74.2,71.4,30.06,NNE,31,0.0,0.0,91,0.00,,,0.02,Wunderground v.1.15,2013-08-22 15:12:00,
2013-08-22 11:18:00,74.1,71.0,30.06,North,5,0.0,1.0,90,0.00,,,0.02,Wunderground v.1.15,2013-08-22 15:18:00,
2013-08-22 11:24:00,74.1,70.6,30.06,WSW,248,0.0,1.0,89,0.00,,,0.02,Wunderground v.1.15,2013-08-22 15:24:00,
2013-08-22 11:30:00,74.0,70.9,30.06,NNE,27,1.0,1.0,90,0.00,,,0.02,Wunderground v.1.15,2013-08-22 15:30:00,
2013-08-22 11:36:00,74.0,70.9,30.06,East,96,0.0,1.0,90,0.00,,,0.02,Wunderground v.1.15,2013-08-22 15:36:00,
2013-08-22 11:42:00,73.8,71.0,30.06,NNE,23,0.0,0.0,91,0.00,,,0.02,Wunderground v.1.15,2013-08-22 15:42:00,
2013-08-22 11:48:00,73.8,71.0,30.05,NNE,23,0.0,0.0,91,0.00,,,0.02,Wunderground v.1.15,2013-08-22 15:48:00,
2013-08-22 11:54:00,74.0,70.9,30.05,ESE,103,0.0,1.0,90,0.00,,,0.02,Wunderground v.1.15,2013-08-22 15:54:00,
2013-08-22 12:00:00,74.0,70.9,30.05,NNE,20,0.0,1.0,90,0.00,,,0.02,Wunderground v.1.15,2013-08-22 16:00:00,
2013-08-22 12:06:00,73.9,70.8,30.05,West,278,0.0,2.0,90,0.00,,,0.02,Wunderground v.1.15,2013-08-22 16:06:00,
2013-08-22 12:12:00,74.0,70.2,30.05,NE,55,0.0,0.0,88,0.00,,,0.02,Wunderground v.1.15,2013-08-22 16:12:00,
2013-08-22 12:18:00,74.1,70.3,30.05,NNE,18,1.0,2.0,88,0.00,,,0.02,Wunderground v.1.15,2013-08-22 16:18:00,
2013-08-22 12:24:00,74.2,69.7,30.04,North,8,1.0,3.0,86,0.00,,,0.02,Wunderground v.1.15,2013-08-22 16:24:00,
2013-08-22 12:30:00,74.5,70.4,30.04,East,85,1.0,1.0,87,0.00,,,0.02,Wunderground v.1.15,2013-08-22 16:30:00,
2013-08-22 12:36:00,74.8,70.7,30.03,NW,319,1.0,2.0,87,0.00,,,0.02,Wunderground v.1.15,2013-08-22 16:36:00,
2013-08-22 12:42:00,75.0,70.5,30.03,North,7,1.0,1.0,86,0.00,,,0.02,Wunderground v.1.15,2013-08-22 16:42:00,
2013-08-22 12:48:00,75.0,70.5,30.03,East,86,1.0,1.0,86,0.00,,,0.02,Wunderground v.1.15,2013-08-22 16:48:00,
2013-08-22 12:54:00,75.2,70.4,30.03,ESE,110,1.0,1.0,85,0.00,,,0.02,Wunderground v.1.15,2013-08-22 16:54:00,
2013-08-22 13:00:00,75.4,70.6,30.03,NE,54,1.0,1.0,85,0.00,,,0.02,Wunderground v.1.15,2013-08-22 17:00:00,
2013-08-22 13:06:00,75.5,70.7,30.03,NW,324,0.0,3.0,85,0.00,,,0.02,Wunderground v.1.15,2013-08-22 17:06:00,
2013-08-22 13:12:00,75.7,70.5,30.03,East,93,1.0,1.0,84,0.00,,,0.02,Wunderground v.1.15,2013-08-22 17:12:00,
2013-08-22 13:18:00,76.6,71.4,30.03,South,176,1.0,1.0,84,0.00,,,0.02,Wunderground v.1.15,2013-08-22 17:18:00,
2013-08-22 13:24:00,77.1,70.8,30.02,East,101,1.0,3.0,81,0.00,,,0.02,Wunderground v.1.15,2013-08-22 17:24:00,
2013-08-22 13:30:00,77.3,69.9,30.02,SSW,210,1.0,2.0,78,0.00,,,0.02,Wunderground v.1.15,2013-08-22 17:30:00,
2013-08-22 13:36:00,77.0,70.4,30.01,North,359,2.0,3.0,80,0.00,,,0.02,Wunderground v.1.15,2013-08-22 17:36:00,
2013-08-22 13:42:00,77.2,70.5,30.01,SE,146,1.0,1.0,80,0.00,,,0.02,Wunderground v.1.15,2013-08-22 17:42:00,
2013-08-22 13:48:00,77.9,70.9,30.01,WSW,255,0.0,2.0,79,0.00,,,0.02,Wunderground v.1.15,2013-08-22 17:48:00,
2013-08-22 13:54:00,78.2,71.9,30.00,NNE,15,0.0,1.0,81,0.00,,,0.02,Wunderground v.1.15,2013-08-22 17:54:00,
2013-08-22 14:00:00,79.0,70.8,30.00,West,276,0.0,4.0,76,0.00,,,0.02,Wunderground v.1.15,2013-08-22 18:00:00,
2013-08-22 14:06:00,79.4,70.4,30.00,East,91,1.0,4.0,74,0.00,,,0.02,Wunderground v.1.15,2013-08-22 18:06:00,
2013-08-22 14:12:00,79.6,69.8,30.00,SSE,153,1.0,1.0,72,0.00,,,0.02,Wunderground v.1.15,2013-08-22 18:12:00,
2013-08-22 14:18:00,79.8,69.6,30.00,West,276,1.0,1.0,71,0.00,,,0.02,Wunderground v.1.15,2013-08-22 18:18:00,
2013-08-22 14:24:00,79.5,70.1,29.99,West,281,1.0,2.0,73,0.00,,,0.02,Wunderground v.1.15,2013-08-22 18:24:00,
2013-08-22 14:30:00,79.3,69.9,29.99,WNW,288,1.0,1.0,73,0.00,,,0.02,Wunderground v.1.15,2013-08-22 18:30:00,
2013-08-22 14:36:00,79.5,70.5,29.98,ESE,106,1.0,3.0,74,0.00,,,0.02,Wunderground v.1.15,2013-08-22 18:36:00,
2013-08-22 14:42:00,79.0,69.6,29.97,NE,51,1.0,2.0,73,0.00,,,0.02,Wunderground v.1.15,2013-08-22 18:42:00,
2013-08-22 14:48:00,78.2,69.2,29.97,South,186,2.0,2.0,74,0.00,,,0.02,Wunderground v.1.15,2013-08-22 18:48:00,
2013-08-22 14:54:00,77.7,69.5,29.97,WSW,240,1.0,3.0,76,0.00,,,0.02,Wunderground v.1.15,2013-08-22 18:54:00,
2013-08-22 15:00:00,78.5,70.3,29.98,SE,131,2.0,2.0,76,0.00,,,0.02,Wunderground v.1.15,2013-08-22 19:00:00,
2013-08-22 15:06:00,78.9,69.9,29.97,WNW,285,2.0,7.0,74,0.00,,,0.02,Wunderground v.1.15,2013-08-22 19:06:00,
2013-08-22 15:12:00,79.4,70.4,29.97,NNE,21,2.0,2.0,74,0.00,,,0.02,Wunderground v.1.15,2013-08-22 19:12:00,
2013-08-22 15:18:00,79.5,70.9,29.97,NNW,346,1.0,2.0,75,0.00,,,0.02,Wunderground v.1.15,2013-08-22 19:18:00,
2013-08-22 15:24:00,79.4,69.6,29.97,SE,133,2.0,5.0,72,0.00,,,0.02,Wunderground v.1.15,2013-08-22 19:24:00,
2013-08-22 15:30:00,79.0,69.6,29.96,SE,132,2.0,2.0,73,0.00,,,0.02,Wunderground v.1.15,2013-08-22 19:30:00,
2013-08-22 15:36:00,79.2,69.8,29.96,SE,143,1.0,2.0,73,0.00,,,0.02,Wunderground v.1.15,2013-08-22 19:36:00,
2013-08-22 15:42:00,79.6,70.2,29.95,NNE,25,1.0,1.0,73,0.00,,,0.02,Wunderground v.1.15,2013-08-22 19:42:00,
2013-08-22 15:48:00,79.6,70.6,29.95,SE,141,1.0,3.0,74,0.00,,,0.02,Wunderground v.1.15,2013-08-22 19:48:00,
2013-08-22 15:54:00,79.6,70.6,29.95,ENE,71,1.0,1.0,74,0.00,,,0.02,Wunderground v.1.15,2013-08-22 19:54:00,
2013-08-22 16:00:00,79.6,70.6,29.95,SW,233,1.0,1.0,74,0.00,,,0.02,Wunderground v.1.15,2013-08-22 20:00:00,
2013-08-22 16:06:00,79.6,70.6,29.95,ESE,120,1.0,4.0,74,0.00,,,0.02,Wunderground v.1.15,2013-08-22 20:06:00,
2013-08-22 16:12:00,79.4,70.4,29.95,WSW,257,2.0,5.0,74,0.00,,,0.02,Wunderground v.1.15,2013-08-22 20:12:00,
2013-08-22 16:18:00,79.4,71.2,29.95,NW,311,2.0,5.0,76,0.00,,,0.02,Wunderground v.1.15,2013-08-22 20:18:00,
2013-08-22 16:24:00,79.9,71.7,29.95,East,87,1.0,2.0,76,0.00,,,0.02,Wunderground v.1.15,2013-08-22 20:24:00,
2013-08-22 16:30:00,79.2,70.2,29.95,SE,135,1.0,1.0,74,0.00,,,0.02,Wunderground v.1.15,2013-08-22 20:30:00,
2013-08-22 16:36:00,78.6,70.4,29.94,SE,129,1.0,1.0,76,0.00,,,0.02,Wunderground v.1.15,2013-08-22 20:36:00,
2013-08-22 16:42:00,77.9,70.1,29.94,NE,49,1.0,1.0,77,0.00,,,0.02,Wunderground v.1.15,2013-08-22 20:42:00,
2013-08-22 16:48:00,77.4,70.0,29.94,ESE,105,1.0,1.0,78,0.00,,,0.02,Wunderground v.1.15,2013-08-22 20:48:00,
2013-08-22 16:54:00,77.2,70.5,29.93,ENE,71,1.0,1.0,80,0.00,,,0.02,Wunderground v.1.15,2013-08-22 20:54:00,
2013-08-22 17:00:00,77.0,70.4,29.93,NW,314,1.0,1.0,80,0.00,,,0.02,Wunderground v.1.15,2013-08-22 21:00:00,
2013-08-22 17:06:00,77.0,70.4,29.93,NNE,23,1.0,7.0,80,0.00,,,0.02,Wunderground v.1.15,2013-08-22 21:06:00,
2013-08-22 17:12:00,77.1,70.5,29.93,ENE,60,1.0,1.0,80,0.00,,,0.02,Wunderground v.1.15,2013-08-22 21:12:00,
2013-08-22 17:18:00,77.1,70.1,29.93,ESE,117,1.0,1.0,79,0.00,,,0.02,Wunderground v.1.15,2013-08-22 21:18:00,
2013-08-22 17:24:00,77.3,70.3,29.93,ENE,65,1.0,2.0,79,0.00,,,0.02,Wunderground v.1.15,2013-08-22 21:24:00,
2013-08-22 17:30:00,77.6,70.2,29.92,SW,224,0.0,1.0,78,0.00,,,0.02,Wunderground v.1.15,2013-08-22 21:30:00,
2013-08-22 17:36:00,77.6,70.2,29.93,East,89,1.0,1.0,78,0.00,,,0.02,Wunderground v.1.15,2013-08-22 21:36:00,
2013-08-22 17:42:00,77.2,70.2,29.92,SE,141,1.0,1.0,79,0.00,,,0.02,Wunderground v.1.15,2013-08-22 21:42:00,
2013-08-22 17:48:00,77.0,70.0,29.92,SE,129,0.0,1.0,79,0.00,,,0.02,Wunderground v.1.15,2013-08-22 21:48:00,
2013-08-22 17:54:00,76.8,70.2,29.92,SE,141,0.0,1.0,80,0.00,,,0.02,Wunderground v.1.15,2013-08-22 21:54:00,
2013-08-22 18:00:00,76.7,70.1,29.92,ENE,66,0.0,0.0,80,0.00,,,0.02,Wunderground v.1.15,2013-08-22 22:00:00,
2013-08-22 18:06:00,76.6,70.3,29.93,East,91,0.0,5.0,81,0.00,,,0.02,Wunderground v.1.15,2013-08-22 22:06:00,
2013-08-22 18:12:00,76.5,69.9,29.92,SE,146,1.0,1.0,80,0.00,,,0.02,Wunderground v.1.15,2013-08-22 22:12:00,
2013-08-22 18:18:00,76.4,69.8,29.93,NW,304,0.0,1.0,80,0.00,,,0.02,Wunderground v.1.15,2013-08-22 22:18:00,
2013-08-22 18:24:00,76.2,69.9,29.92,NW,323,0.0,0.0,81,0.00,,,0.02,Wunderground v.1.15,2013-08-22 22:24:00,
2013-08-22 18:30:00,75.8,69.9,29.93,North,11,0.0,0.0,82,0.00,,,0.02,Wunderground v.1.15,2013-08-22 22:30:00,
2013-08-22 18:36:00,75.3,69.4,29.93,East,79,1.0,1.0,82,0.00,,,0.02,Wunderground v.1.15,2013-08-22 22:36:00,
2013-08-22 18:42:00,75.2,69.7,29.93,ESE,115,0.0,0.0,83,0.00,,,0.02,Wunderground v.1.15,2013-08-22 22:42:00,
2013-08-22 18:48:00,74.9,69.7,29.93,East,86,0.0,0.0,84,0.00,,,0.02,Wunderground v.1.15,2013-08-22 22:48:00,
2013-08-22 18:54:00,74.7,69.9,29.93,East,86,0.0,0.0,85,0.00,,,0.02,Wunderground v.1.15,2013-08-22 22:54:00,
2013-08-22 19:00:00,74.3,69.5,29.92,East,86,0.0,1.0,85,0.00,,,0.02,Wunderground v.1.15,2013-08-22 23:00:00,
2013-08-22 19:06:00,73.9,69.4,29.92,East,86,0.0,3.0,86,0.00,,,0.02,Wunderground v.1.15,2013-08-22 23:06:00,
2013-08-22 19:12:00,73.5,69.4,29.92,ENE,72,0.0,0.0,87,0.00,,,0.02,Wunderground v.1.15,2013-08-22 23:12:00,
2013-08-22 19:18:00,73.2,69.1,29.92,ENE,72,0.0,0.0,87,0.00,,,0.02,Wunderground v.1.15,2013-08-22 23:18:00,
2013-08-22 19:24:00,72.8,69.0,29.92,WSW,252,0.0,1.0,88,0.00,,,0.02,Wunderground v.1.15,2013-08-22 23:24:00,
2013-08-22 19:30:00,72.6,69.2,29.92,East,86,0.0,0.0,89,0.00,,,0.02,Wunderground v.1.15,2013-08-22 23:30:00,
2013-08-22 19:36:00,72.4,69.0,29.92,SE,125,0.0,1.0,89,0.00,,,0.02,Wunderground v.1.15,2013-08-22 23:36:00,
2013-08-22 19:42:00,72.2,69.1,29.92,WSW,240,0.0,1.0,90,0.00,,,0.02,Wunderground v.1.15,2013-08-22 23:42:00,
2013-08-22 19:48:00,72.0,68.9,29.92,SW,222,0.0,1.0,90,0.00,,,0.02,Wunderground v.1.15,2013-08-22 23:48:00,
2013-08-22 19:54:00,71.7,68.6,29.91,ESE,118,0.0,0.0,90,0.00,,,0.02,Wunderground v.1.15,2013-08-22 23:54:00,
2013-08-22 20:00:00,71.6,68.8,29.91,ESE,114,0.0,0.0,91,0.00,,,0.02,Wunderground v.1.15,2013-08-23 00:00:00,
2013-08-22 20:06:00,71.4,69.0,29.92,ENE,58,0.0,3.0,92,0.00,,,0.02,Wunderground v.1.15,2013-08-23 00:06:00,
2013-08-22 20:12:00,71.2,68.8,29.92,East,84,0.0,3.0,92,0.00,,,0.02,Wunderground v.1.15,2013-08-23 00:12:00,
2013-08-22 20:18:00,71.1,68.7,29.92,ENE,63,1.0,3.0,92,0.00,,,0.02,Wunderground v.1.15,2013-08-23 00:18:00,
2013-08-22 20:24:00,71.0,68.9,29.92,ESE,123,1.0,1.0,93,0.00,,,0.02,Wunderground v.1.15,2013-08-23 00:24:00,
2013-08-22 20:30:00,70.9,68.8,29.92,East,91,1.0,1.0,93,0.00,,,0.02,Wunderground v.1.15,2013-08-23 00:30:00,
2013-08-22 20:36:00,70.8,68.7,29.92,SE,124,0.0,2.0,93,0.00,,,0.02,Wunderground v.1.15,2013-08-23 00:36:00,
2013-08-22 20:42:00,70.7,68.9,29.92,ESE,108,0.0,0.0,94,0.00,,,0.02,Wunderground v.1.15,2013-08-23 00:42:00,
2013-08-22 20:48:00,70.7,68.9,29.93,ESE,109,0.0,1.0,94,0.00,,,0.02,Wunderground v.1.15,2013-08-23 00:48:00,
2013-08-22 20:54:00,70.7,68.9,29.93,East,84,1.0,2.0,94,0.00,,,0.02,Wunderground v.1.15,2013-08-23 00:54:00,
2013-08-22 21:00:00,70.7,68.9,29.93,ESE,103,1.0,1.0,94,0.00,,,0.02,Wunderground v.1.15,2013-08-23 01:00:00,
2013-08-22 21:06:00,70.8,69.3,29.93,East,100,1.0,2.0,95,0.00,,,0.02,Wunderground v.1.15,2013-08-23 01:06:00,
2013-08-22 21:12:00,71.0,69.5,29.93,East,91,1.0,2.0,95,0.00,,,0.02,Wunderground v.1.15,2013-08-23 01:12:00,
2013-08-22 21:18:00,71.1,69.3,29.93,East,90,1.0,2.0,94,0.00,,,0.02,Wunderground v.1.15,2013-08-23 01:18:00,
2013-08-22 21:24:00,71.4,69.9,29.93,East,91,1.0,2.0,95,0.00,,,0.02,Wunderground v.1.15,2013-08-23 01:24:00,
2013-08-22 21:30:00,71.6,69.8,29.93,East,89,1.0,1.0,94,0.00,,,0.02,Wunderground v.1.15,2013-08-23 01:30:00,
2013-08-22 21:36:00,71.7,69.9,29.93,ENE,76,1.0,2.0,94,0.00,,,0.02,Wunderground v.1.15,2013-08-23 01:36:00,
2013-08-22 21:42:00,72.0,69.9,29.93,ENE,68,2.0,2.0,93,0.00,,,0.02,Wunderground v.1.15,2013-08-23 01:42:00,
2013-08-22 21:48:00,71.9,69.8,29.93,East,94,2.0,5.0,93,0.00,,,0.02,Wunderground v.1.15,2013-08-23 01:48:00,
2013-08-22 21:54:00,71.8,69.7,29.93,ESE,119,2.0,3.0,93,0.00,,,0.02,Wunderground v.1.15,2013-08-23 01:54:00,
2013-08-22 22:00:00,71.7,69.6,29.93,ENE,78,2.0,2.0,93,0.00,,,0.02,Wunderground v.1.15,2013-08-23 02:00:00,
2013-08-22 22:06:00,71.8,69.7,29.92,East,86,1.0,4.0,93,0.00,,,0.02,Wunderground v.1.15,2013-08-23 02:06:00,
2013-08-22 22:12:00,71.3,69.2,29.92,ESE,115,1.0,2.0,93,0.00,,,0.02,Wunderground v.1.15,2013-08-23 02:12:00,
2013-08-22 22:18:00,71.3,69.2,29.92,ESE,104,1.0,4.0,93,0.00,,,0.02,Wunderground v.1.15,2013-08-23 02:18:00,
2013-08-22 22:24:00,71.4,69.3,29.93,NNW,341,1.0,1.0,93,0.00,,,0.02,Wunderground v.1.15,2013-08-23 02:24:00,
2013-08-22 22:30:00,71.5,69.4,29.93,NW,315,1.0,1.0,93,0.00,,,0.02,Wunderground v.1.15,2013-08-23 02:30:00,
2013-08-22 22:36:00,72.4,69.3,29.92,SW,224,1.0,5.0,90,0.00,,,0.02,Wunderground v.1.15,2013-08-23 02:36:00,
2013-08-22 22:42:00,73.1,69.3,29.91,NNW,342,1.0,2.0,88,0.00,,,0.02,Wunderground v.1.15,2013-08-23 02:42:00,
2013-08-22 22:48:00,73.2,69.4,29.92,NNE,15,1.0,2.0,88,0.00,,,0.02,Wunderground v.1.15,2013-08-23 02:48:00,
2013-08-22 22:54:00,73.1,69.3,29.93,NE,56,1.0,1.0,88,0.00,,,0.02,Wunderground v.1.15,2013-08-23 02:54:00,
2013-08-22 23:00:00,72.7,69.3,29.93,North,359,0.0,1.0,89,0.00,,,0.02,Wunderground v.1.15,2013-08-23 03:00:00,
2013-08-22 23:06:00,72.7,69.3,29.93,NNE,20,1.0,6.0,89,0.00,,,0.02,Wunderground v.1.15,2013-08-23 03:06:00,
2013-08-22 23:12:00,72.5,69.1,29.93,NNE,20,0.0,1.0,89,0.00,,,0.02,Wunderground v.1.15,2013-08-23 03:12:00,
2013-08-22 23:18:00,72.1,69.0,29.93,NNE,20,0.0,1.0,90,0.00,,,0.02,Wunderground v.1.15,2013-08-23 03:18:00,
2013-08-22 23:24:00,71.7,68.9,29.93,NNE,20,0.0,0.0,91,0.00,,,0.02,Wunderground v.1.15,2013-08-23 03:24:00,
2013-08-22 23:30:00,71.4,68.6,29.93,NNE,20,0.0,0.0,91,0.00,,,0.02,Wunderground v.1.15,2013-08-23 03:30:00,
2013-08-22 23:36:00,71.0,68.6,29.93,NNE,20,0.0,0.0,92,0.00,,,0.02,Wunderground v.1.15,2013-08-23 03:36:00,
2013-08-22 23:42:00,70.7,68.6,29.93,West,260,0.0,0.0,93,0.00,,,0.02,Wunderground v.1.15,2013-08-23 03:42:00,
2013-08-22 23:48:00,70.4,68.6,29.93,West,260,0.0,1.0,94,0.00,,,0.02,Wunderground v.1.15,2013-08-23 03:48:00,
2013-08-22 23:54:00,70.3,68.5,29.93,West,260,0.0,0.0,94,0.00,,,0.02,Wunderground v.1.15,2013-08-23 03:54:00,